sensor_id;sensor_type;location;lat;lon;timestamp;P1;durP1;ratioP1;P2;durP2;ratioP2
50417;SDS011;36346;48.280;14.292;2023-04-12T00:01:29;7.77;;;7.77;;
50417;SDS011;36346;48.280;14.292;2023-04-12T00:03:57;7.73;;;7.73;;
50417;SDS011;36346;48.280;14.292;2023-04-12T00:06:26;8.21;;;8.21;;
50417;SDS011;36346;48.280;14.292;2023-04-12T00:08:59;8.16;;;8.16;;
50417;SDS011;36346;48.280;14.292;2023-04-12T00:11:27;7.81;;;7.81;;
50417;SDS011;36346;48.280;14.292;2023-04-12T00:13:55;7.79;;;7.79;;
50417;SDS011;36346;48.280;14.292;2023-04-12T00:16:23;7.52;;;7.52;;
50417;SDS011;36346;48.280;14.292;2023-04-12T00:18:51;8.22;;;8.21;;
50417;SDS011;36346;48.280;14.292;2023-04-12T00:21:19;8.27;;;8.24;;
50417;SDS011;36346;48.280;14.292;2023-04-12T00:23:50;8.15;;;8.15;;
50417;SDS011;36346;48.280;14.292;2023-04-12T00:26:18;8.19;;;8.19;;
50417;SDS011;36346;48.280;14.292;2023-04-12T00:28:47;8.61;;;8.61;;
50417;SDS011;36346;48.280;14.292;2023-04-12T00:31:15;8.35;;;8.35;;
50417;SDS011;36346;48.280;14.292;2023-04-12T00:33:43;8.78;;;8.78;;
50417;SDS011;36346;48.280;14.292;2023-04-12T00:36:11;8.94;;;8.94;;
50417;SDS011;36346;48.280;14.292;2023-04-12T00:38:41;10.00;;;10.00;;
50417;SDS011;36346;48.280;14.292;2023-04-12T00:41:09;9.88;;;9.88;;
50417;SDS011;36346;48.280;14.292;2023-04-12T00:43:40;9.15;;;9.15;;
50417;SDS011;36346;48.280;14.292;2023-04-12T00:46:09;9.30;;;9.30;;
50417;SDS011;36346;48.280;14.292;2023-04-12T00:48:38;8.84;;;8.84;;
50417;SDS011;36346;48.280;14.292;2023-04-12T00:51:07;9.19;;;9.19;;
50417;SDS011;36346;48.280;14.292;2023-04-12T00:53:35;9.50;;;9.50;;
50417;SDS011;36346;48.280;14.292;2023-04-12T00:56:05;9.50;;;9.50;;
50417;SDS011;36346;48.280;14.292;2023-04-12T00:58:34;9.37;;;9.37;;
50417;SDS011;36346;48.280;14.292;2023-04-12T01:01:02;9.57;;;9.57;;
50417;SDS011;36346;48.280;14.292;2023-04-12T01:03:30;9.74;;;9.74;;
50417;SDS011;36346;48.280;14.292;2023-04-12T01:08:52;10.13;;;10.13;;
50417;SDS011;36346;48.280;14.292;2023-04-12T01:11:37;9.63;;;9.63;;
50417;SDS011;36346;48.280;14.292;2023-04-12T01:16:56;10.23;;;10.23;;
50417;SDS011;36346;48.280;14.292;2023-04-12T01:22:09;9.49;;;9.49;;
50417;SDS011;36346;48.280;14.292;2023-04-12T01:30:39;9.90;;;9.90;;
50417;SDS011;36346;48.280;14.292;2023-04-12T01:33:09;9.88;;;9.88;;
50417;SDS011;36346;48.280;14.292;2023-04-12T01:35:38;9.69;;;9.69;;
50417;SDS011;36346;48.280;14.292;2023-04-12T01:38:08;10.99;;;10.99;;
50417;SDS011;36346;48.280;14.292;2023-04-12T01:40:37;10.87;;;10.87;;
50417;SDS011;36346;48.280;14.292;2023-04-12T01:43:08;11.06;;;11.06;;
50417;SDS011;36346;48.280;14.292;2023-04-12T01:45:38;11.61;;;11.61;;
50417;SDS011;36346;48.280;14.292;2023-04-12T01:48:07;10.36;;;10.36;;
50417;SDS011;36346;48.280;14.292;2023-04-12T01:50:42;9.85;;;9.85;;
50417;SDS011;36346;48.280;14.292;2023-04-12T01:55:56;8.74;;;8.74;;
50417;SDS011;36346;48.280;14.292;2023-04-12T01:58:26;7.92;;;7.92;;
50417;SDS011;36346;48.280;14.292;2023-04-12T02:00:57;7.63;;;7.62;;
50417;SDS011;36346;48.280;14.292;2023-04-12T02:03:27;6.79;;;6.79;;
50417;SDS011;36346;48.280;14.292;2023-04-12T02:05:58;5.98;;;5.98;;
50417;SDS011;36346;48.280;14.292;2023-04-12T02:08:27;5.83;;;5.83;;
50417;SDS011;36346;48.280;14.292;2023-04-12T02:10:55;5.53;;;5.51;;
50417;SDS011;36346;48.280;14.292;2023-04-12T02:13:23;4.82;;;4.81;;
50417;SDS011;36346;48.280;14.292;2023-04-12T02:15:53;4.07;;;4.07;;
50417;SDS011;36346;48.280;14.292;2023-04-12T02:18:21;3.79;;;3.79;;
50417;SDS011;36346;48.280;14.292;2023-04-12T02:20:50;3.37;;;3.37;;
50417;SDS011;36346;48.280;14.292;2023-04-12T02:23:18;3.26;;;3.26;;
50417;SDS011;36346;48.280;14.292;2023-04-12T02:25:46;3.36;;;3.36;;
50417;SDS011;36346;48.280;14.292;2023-04-12T02:28:16;3.33;;;3.33;;
50417;SDS011;36346;48.280;14.292;2023-04-12T02:30:44;3.04;;;3.04;;
50417;SDS011;36346;48.280;14.292;2023-04-12T02:33:12;3.17;;;3.17;;
50417;SDS011;36346;48.280;14.292;2023-04-12T02:35:43;3.52;;;3.52;;
50417;SDS011;36346;48.280;14.292;2023-04-12T02:38:14;3.22;;;3.22;;
50417;SDS011;36346;48.280;14.292;2023-04-12T02:40:43;3.66;;;3.66;;
50417;SDS011;36346;48.280;14.292;2023-04-12T02:43:14;3.69;;;3.69;;
50417;SDS011;36346;48.280;14.292;2023-04-12T02:45:46;3.94;;;3.94;;
50417;SDS011;36346;48.280;14.292;2023-04-12T02:48:14;4.16;;;4.16;;
50417;SDS011;36346;48.280;14.292;2023-04-12T02:50:43;4.23;;;4.23;;
50417;SDS011;36346;48.280;14.292;2023-04-12T02:53:17;4.40;;;4.40;;
50417;SDS011;36346;48.280;14.292;2023-04-12T02:55:52;4.60;;;4.58;;
50417;SDS011;36346;48.280;14.292;2023-04-12T02:58:23;4.74;;;4.72;;
50417;SDS011;36346;48.280;14.292;2023-04-12T03:00:52;5.04;;;5.04;;
50417;SDS011;36346;48.280;14.292;2023-04-12T03:03:26;5.20;;;5.20;;
50417;SDS011;36346;48.280;14.292;2023-04-12T03:06:04;4.66;;;4.64;;
50417;SDS011;36346;48.280;14.292;2023-04-12T03:08:33;5.05;;;5.02;;
50417;SDS011;36346;48.280;14.292;2023-04-12T03:11:02;4.79;;;4.79;;
50417;SDS011;36346;48.280;14.292;2023-04-12T03:13:30;4.80;;;4.80;;
50417;SDS011;36346;48.280;14.292;2023-04-12T03:15:58;4.54;;;4.54;;
50417;SDS011;36346;48.280;14.292;2023-04-12T03:18:34;4.60;;;4.60;;
50417;SDS011;36346;48.280;14.292;2023-04-12T03:21:02;4.74;;;4.73;;
50417;SDS011;36346;48.280;14.292;2023-04-12T03:23:32;4.98;;;4.94;;
50417;SDS011;36346;48.280;14.292;2023-04-12T03:26:14;4.87;;;4.86;;
50417;SDS011;36346;48.280;14.292;2023-04-12T03:28:57;5.12;;;5.12;;
50417;SDS011;36346;48.280;14.292;2023-04-12T03:31:29;5.28;;;5.28;;
50417;SDS011;36346;48.280;14.292;2023-04-12T03:34:03;5.47;;;5.47;;
50417;SDS011;36346;48.280;14.292;2023-04-12T03:36:31;5.77;;;5.77;;
50417;SDS011;36346;48.280;14.292;2023-04-12T03:39:08;5.73;;;5.73;;
50417;SDS011;36346;48.280;14.292;2023-04-12T03:41:37;5.28;;;5.28;;
50417;SDS011;36346;48.280;14.292;2023-04-12T03:44:05;5.88;;;5.87;;
50417;SDS011;36346;48.280;14.292;2023-04-12T03:46:35;5.42;;;5.40;;
50417;SDS011;36346;48.280;14.292;2023-04-12T03:49:07;5.24;;;5.23;;
50417;SDS011;36346;48.280;14.292;2023-04-12T03:51:35;5.31;;;5.27;;
50417;SDS011;36346;48.280;14.292;2023-04-12T03:54:12;5.23;;;5.23;;
50417;SDS011;36346;48.280;14.292;2023-04-12T03:56:55;5.32;;;5.32;;
50417;SDS011;36346;48.280;14.292;2023-04-12T03:59:28;5.29;;;5.29;;
50417;SDS011;36346;48.280;14.292;2023-04-12T04:01:58;5.33;;;5.30;;
50417;SDS011;36346;48.280;14.292;2023-04-12T04:04:32;6.05;;;6.05;;
50417;SDS011;36346;48.280;14.292;2023-04-12T04:07:05;7.19;;;7.17;;
50417;SDS011;36346;48.280;14.292;2023-04-12T04:09:42;7.16;;;7.16;;
50417;SDS011;36346;48.280;14.292;2023-04-12T04:12:11;6.40;;;6.37;;
50417;SDS011;36346;48.280;14.292;2023-04-12T04:14:44;5.99;;;5.98;;
50417;SDS011;36346;48.280;14.292;2023-04-12T04:17:19;6.12;;;6.11;;
50417;SDS011;36346;48.280;14.292;2023-04-12T04:19:48;5.91;;;5.91;;
50417;SDS011;36346;48.280;14.292;2023-04-12T04:22:17;6.76;;;6.76;;
50417;SDS011;36346;48.280;14.292;2023-04-12T04:24:50;7.19;;;7.19;;
50417;SDS011;36346;48.280;14.292;2023-04-12T04:27:19;7.62;;;7.60;;
50417;SDS011;36346;48.280;14.292;2023-04-12T04:29:51;8.41;;;8.38;;
50417;SDS011;36346;48.280;14.292;2023-04-12T04:32:19;8.28;;;8.28;;
50417;SDS011;36346;48.280;14.292;2023-04-12T04:34:47;9.38;;;9.34;;
50417;SDS011;36346;48.280;14.292;2023-04-12T04:37:17;10.45;;;10.41;;
50417;SDS011;36346;48.280;14.292;2023-04-12T04:39:46;11.18;;;11.12;;
50417;SDS011;36346;48.280;14.292;2023-04-12T04:42:14;10.47;;;10.39;;
50417;SDS011;36346;48.280;14.292;2023-04-12T04:45:02;8.98;;;8.88;;
50417;SDS011;36346;48.280;14.292;2023-04-12T04:47:37;8.55;;;8.48;;
50417;SDS011;36346;48.280;14.292;2023-04-12T04:50:06;9.63;;;9.57;;
50417;SDS011;36346;48.280;14.292;2023-04-12T04:52:34;9.29;;;9.18;;
50417;SDS011;36346;48.280;14.292;2023-04-12T04:55:08;8.96;;;8.91;;
50417;SDS011;36346;48.280;14.292;2023-04-12T04:57:39;9.28;;;9.19;;
50417;SDS011;36346;48.280;14.292;2023-04-12T05:00:08;8.31;;;8.25;;
50417;SDS011;36346;48.280;14.292;2023-04-12T05:02:43;8.38;;;8.34;;
50417;SDS011;36346;48.280;14.292;2023-04-12T05:05:17;8.18;;;8.16;;
50417;SDS011;36346;48.280;14.292;2023-04-12T05:07:53;8.83;;;8.80;;
50417;SDS011;36346;48.280;14.292;2023-04-12T05:10:23;8.94;;;8.90;;
50417;SDS011;36346;48.280;14.292;2023-04-12T05:12:52;9.16;;;9.15;;
50417;SDS011;36346;48.280;14.292;2023-04-12T05:15:20;9.06;;;9.05;;
50417;SDS011;36346;48.280;14.292;2023-04-12T05:17:48;8.54;;;8.52;;
50417;SDS011;36346;48.280;14.292;2023-04-12T05:20:16;8.63;;;8.62;;
50417;SDS011;36346;48.280;14.292;2023-04-12T05:22:44;8.27;;;8.27;;
50417;SDS011;36346;48.280;14.292;2023-04-12T05:25:12;8.15;;;8.15;;
50417;SDS011;36346;48.280;14.292;2023-04-12T05:27:49;7.69;;;7.67;;
50417;SDS011;36346;48.280;14.292;2023-04-12T05:30:19;7.23;;;7.20;;
50417;SDS011;36346;48.280;14.292;2023-04-12T05:32:48;6.72;;;6.71;;
50417;SDS011;36346;48.280;14.292;2023-04-12T05:35:18;5.97;;;5.97;;
50417;SDS011;36346;48.280;14.292;2023-04-12T05:37:47;6.04;;;6.02;;
50417;SDS011;36346;48.280;14.292;2023-04-12T05:40:15;6.19;;;6.19;;
50417;SDS011;36346;48.280;14.292;2023-04-12T05:42:43;6.55;;;6.55;;
50417;SDS011;36346;48.280;14.292;2023-04-12T05:45:12;6.95;;;6.93;;
50417;SDS011;36346;48.280;14.292;2023-04-12T05:47:42;7.25;;;7.23;;
50417;SDS011;36346;48.280;14.292;2023-04-12T05:50:10;7.35;;;7.35;;
50417;SDS011;36346;48.280;14.292;2023-04-12T05:52:39;7.71;;;7.71;;
50417;SDS011;36346;48.280;14.292;2023-04-12T05:55:08;7.92;;;7.92;;
50417;SDS011;36346;48.280;14.292;2023-04-12T05:57:40;8.22;;;8.18;;
50417;SDS011;36346;48.280;14.292;2023-04-12T06:00:08;8.06;;;8.06;;
50417;SDS011;36346;48.280;14.292;2023-04-12T06:02:46;8.62;;;8.62;;
50417;SDS011;36346;48.280;14.292;2023-04-12T06:05:15;9.24;;;9.23;;
50417;SDS011;36346;48.280;14.292;2023-04-12T06:07:45;9.22;;;9.22;;
50417;SDS011;36346;48.280;14.292;2023-04-12T06:10:15;9.69;;;9.67;;
50417;SDS011;36346;48.280;14.292;2023-04-12T06:12:48;9.70;;;9.69;;
50417;SDS011;36346;48.280;14.292;2023-04-12T06:15:18;11.05;;;11.05;;
50417;SDS011;36346;48.280;14.292;2023-04-12T06:17:52;10.86;;;10.86;;
50417;SDS011;36346;48.280;14.292;2023-04-12T06:20:20;11.72;;;11.68;;
50417;SDS011;36346;48.280;14.292;2023-04-12T06:22:48;12.89;;;12.88;;
50417;SDS011;36346;48.280;14.292;2023-04-12T06:25:17;13.79;;;13.77;;
50417;SDS011;36346;48.280;14.292;2023-04-12T06:27:47;19.07;;;18.53;;
50417;SDS011;36346;48.280;14.292;2023-04-12T06:30:17;17.26;;;16.31;;
50417;SDS011;36346;48.280;14.292;2023-04-12T06:32:46;13.28;;;13.28;;
50417;SDS011;36346;48.280;14.292;2023-04-12T06:35:14;13.03;;;13.03;;
50417;SDS011;36346;48.280;14.292;2023-04-12T06:37:43;13.42;;;13.42;;
50417;SDS011;36346;48.280;14.292;2023-04-12T06:40:11;12.14;;;12.14;;
50417;SDS011;36346;48.280;14.292;2023-04-12T06:42:39;10.61;;;10.61;;
50417;SDS011;36346;48.280;14.292;2023-04-12T06:45:07;10.79;;;10.79;;
50417;SDS011;36346;48.280;14.292;2023-04-12T06:47:36;10.71;;;10.71;;
50417;SDS011;36346;48.280;14.292;2023-04-12T06:50:04;10.55;;;10.55;;
50417;SDS011;36346;48.280;14.292;2023-04-12T06:52:33;9.93;;;9.93;;
50417;SDS011;36346;48.280;14.292;2023-04-12T06:55:01;10.89;;;10.89;;
50417;SDS011;36346;48.280;14.292;2023-04-12T06:57:29;10.84;;;10.82;;
50417;SDS011;36346;48.280;14.292;2023-04-12T06:59:57;12.96;;;12.93;;
50417;SDS011;36346;48.280;14.292;2023-04-12T07:02:25;17.25;;;17.22;;
50417;SDS011;36346;48.280;14.292;2023-04-12T07:04:53;19.04;;;18.90;;
50417;SDS011;36346;48.280;14.292;2023-04-12T07:07:21;19.12;;;19.06;;
50417;SDS011;36346;48.280;14.292;2023-04-12T07:09:49;20.00;;;19.90;;
50417;SDS011;36346;48.280;14.292;2023-04-12T07:12:18;19.06;;;19.04;;
50417;SDS011;36346;48.280;14.292;2023-04-12T07:14:46;18.58;;;18.48;;
50417;SDS011;36346;48.280;14.292;2023-04-12T07:17:14;16.97;;;16.85;;
50417;SDS011;36346;48.280;14.292;2023-04-12T07:19:42;15.51;;;15.40;;
50417;SDS011;36346;48.280;14.292;2023-04-12T07:22:11;15.73;;;15.54;;
50417;SDS011;36346;48.280;14.292;2023-04-12T07:24:40;14.29;;;14.24;;
50417;SDS011;36346;48.280;14.292;2023-04-12T07:27:08;13.73;;;13.67;;
50417;SDS011;36346;48.280;14.292;2023-04-12T07:29:37;14.61;;;14.48;;
50417;SDS011;36346;48.280;14.292;2023-04-12T07:32:05;14.77;;;14.67;;
50417;SDS011;36346;48.280;14.292;2023-04-12T07:34:34;15.03;;;15.00;;
50417;SDS011;36346;48.280;14.292;2023-04-12T07:37:03;15.86;;;15.83;;
50417;SDS011;36346;48.280;14.292;2023-04-12T07:39:31;16.09;;;16.03;;
50417;SDS011;36346;48.280;14.292;2023-04-12T07:42:01;14.49;;;14.47;;
50417;SDS011;36346;48.280;14.292;2023-04-12T07:44:29;14.32;;;14.28;;
50417;SDS011;36346;48.280;14.292;2023-04-12T07:46:57;12.88;;;12.83;;
50417;SDS011;36346;48.280;14.292;2023-04-12T07:49:25;12.17;;;12.12;;
50417;SDS011;36346;48.280;14.292;2023-04-12T07:51:53;14.91;;;14.76;;
50417;SDS011;36346;48.280;14.292;2023-04-12T07:54:21;13.18;;;13.14;;
50417;SDS011;36346;48.280;14.292;2023-04-12T07:56:57;11.21;;;11.18;;
50417;SDS011;36346;48.280;14.292;2023-04-12T07:59:25;10.05;;;10.05;;
50417;SDS011;36346;48.280;14.292;2023-04-12T08:01:53;9.26;;;9.26;;
50417;SDS011;36346;48.280;14.292;2023-04-12T08:04:21;8.99;;;8.96;;
50417;SDS011;36346;48.280;14.292;2023-04-12T08:06:50;9.72;;;9.70;;
50417;SDS011;36346;48.280;14.292;2023-04-12T08:09:18;8.93;;;8.92;;
50417;SDS011;36346;48.280;14.292;2023-04-12T08:11:46;8.74;;;8.69;;
50417;SDS011;36346;48.280;14.292;2023-04-12T08:14:14;8.68;;;8.60;;
50417;SDS011;36346;48.280;14.292;2023-04-12T08:16:42;9.31;;;9.16;;
50417;SDS011;36346;48.280;14.292;2023-04-12T08:19:10;6.66;;;6.55;;
50417;SDS011;36346;48.280;14.292;2023-04-12T08:21:38;8.31;;;8.15;;
50417;SDS011;36346;48.280;14.292;2023-04-12T08:24:07;9.33;;;9.05;;
50417;SDS011;36346;48.280;14.292;2023-04-12T08:26:35;9.07;;;8.82;;
50417;SDS011;36346;48.280;14.292;2023-04-12T08:29:04;8.27;;;8.15;;
50417;SDS011;36346;48.280;14.292;2023-04-12T08:31:32;11.77;;;11.68;;
50417;SDS011;36346;48.280;14.292;2023-04-12T08:34:00;10.40;;;10.35;;
50417;SDS011;36346;48.280;14.292;2023-04-12T08:36:28;9.67;;;9.66;;
50417;SDS011;36346;48.280;14.292;2023-04-12T08:38:57;10.16;;;10.05;;
50417;SDS011;36346;48.280;14.292;2023-04-12T08:41:28;8.12;;;7.94;;
50417;SDS011;36346;48.280;14.292;2023-04-12T08:43:56;7.27;;;7.15;;
50417;SDS011;36346;48.280;14.292;2023-04-12T08:46:26;7.16;;;7.10;;
50417;SDS011;36346;48.280;14.292;2023-04-12T08:48:56;7.18;;;7.14;;
50417;SDS011;36346;48.280;14.292;2023-04-12T08:51:24;10.06;;;9.98;;
50417;SDS011;36346;48.280;14.292;2023-04-12T08:53:53;9.97;;;9.88;;
50417;SDS011;36346;48.280;14.292;2023-04-12T08:56:22;8.09;;;8.03;;
50417;SDS011;36346;48.280;14.292;2023-04-12T08:58:50;6.22;;;6.16;;
50417;SDS011;36346;48.280;14.292;2023-04-12T09:01:19;5.03;;;4.99;;
50417;SDS011;36346;48.280;14.292;2023-04-12T09:03:48;5.47;;;5.44;;
50417;SDS011;36346;48.280;14.292;2023-04-12T09:06:16;5.12;;;5.07;;
50417;SDS011;36346;48.280;14.292;2023-04-12T09:08:50;4.59;;;4.52;;
50417;SDS011;36346;48.280;14.292;2023-04-12T09:11:20;5.83;;;5.68;;
50417;SDS011;36346;48.280;14.292;2023-04-12T09:13:53;6.70;;;6.49;;
50417;SDS011;36346;48.280;14.292;2023-04-12T09:16:35;6.41;;;6.29;;
50417;SDS011;36346;48.280;14.292;2023-04-12T09:19:08;8.52;;;8.34;;
50417;SDS011;36346;48.280;14.292;2023-04-12T09:21:36;5.77;;;5.63;;
50417;SDS011;36346;48.280;14.292;2023-04-12T09:24:22;5.17;;;5.05;;
50417;SDS011;36346;48.280;14.292;2023-04-12T09:27:01;5.06;;;4.94;;
50417;SDS011;36346;48.280;14.292;2023-04-12T09:29:31;5.14;;;5.05;;
50417;SDS011;36346;48.280;14.292;2023-04-12T09:32:04;5.24;;;5.12;;
50417;SDS011;36346;48.280;14.292;2023-04-12T09:34:34;7.12;;;6.84;;
50417;SDS011;36346;48.280;14.292;2023-04-12T09:37:11;8.04;;;7.70;;
50417;SDS011;36346;48.280;14.292;2023-04-12T09:39:41;6.73;;;6.51;;
50417;SDS011;36346;48.280;14.292;2023-04-12T09:42:10;5.99;;;5.88;;
50417;SDS011;36346;48.280;14.292;2023-04-12T09:44:58;5.44;;;5.38;;
50417;SDS011;36346;48.280;14.292;2023-04-12T09:47:36;6.04;;;5.98;;
50417;SDS011;36346;48.280;14.292;2023-04-12T09:50:08;5.04;;;5.02;;
50417;SDS011;36346;48.280;14.292;2023-04-12T09:52:56;5.23;;;5.22;;
50417;SDS011;36346;48.280;14.292;2023-04-12T09:55:26;3.97;;;3.97;;
50417;SDS011;36346;48.280;14.292;2023-04-12T09:57:55;3.37;;;3.36;;
50417;SDS011;36346;48.280;14.292;2023-04-12T10:00:29;3.51;;;3.51;;
50417;SDS011;36346;48.280;14.292;2023-04-12T10:03:02;3.03;;;3.03;;
50417;SDS011;36346;48.280;14.292;2023-04-12T10:05:30;3.14;;;3.14;;
50417;SDS011;36346;48.280;14.292;2023-04-12T10:08:03;2.86;;;2.86;;
50417;SDS011;36346;48.280;14.292;2023-04-12T10:10:32;3.04;;;3.04;;
50417;SDS011;36346;48.280;14.292;2023-04-12T10:13:00;3.17;;;3.17;;
50417;SDS011;36346;48.280;14.292;2023-04-12T10:15:28;2.97;;;2.97;;
50417;SDS011;36346;48.280;14.292;2023-04-12T10:18:03;3.07;;;3.07;;
50417;SDS011;36346;48.280;14.292;2023-04-12T10:20:33;2.82;;;2.82;;
50417;SDS011;36346;48.280;14.292;2023-04-12T10:23:04;3.00;;;3.00;;
50417;SDS011;36346;48.280;14.292;2023-04-12T10:25:32;2.62;;;2.62;;
50417;SDS011;36346;48.280;14.292;2023-04-12T10:28:17;2.99;;;2.99;;
50417;SDS011;36346;48.280;14.292;2023-04-12T10:30:46;3.15;;;3.15;;
50417;SDS011;36346;48.280;14.292;2023-04-12T10:33:23;3.16;;;3.16;;
50417;SDS011;36346;48.280;14.292;2023-04-12T10:35:54;3.07;;;3.07;;
50417;SDS011;36346;48.280;14.292;2023-04-12T10:38:23;3.60;;;3.60;;
50417;SDS011;36346;48.280;14.292;2023-04-12T10:41:07;3.33;;;3.33;;
50417;SDS011;36346;48.280;14.292;2023-04-12T10:43:38;3.30;;;3.30;;
50417;SDS011;36346;48.280;14.292;2023-04-12T10:49:12;3.65;;;3.65;;
50417;SDS011;36346;48.280;14.292;2023-04-12T10:54:30;3.62;;;3.62;;
50417;SDS011;36346;48.280;14.292;2023-04-12T10:57:05;3.65;;;3.65;;
50417;SDS011;36346;48.280;14.292;2023-04-12T10:59:51;3.54;;;3.54;;
50417;SDS011;36346;48.280;14.292;2023-04-12T11:02:23;3.79;;;3.79;;
50417;SDS011;36346;48.280;14.292;2023-04-12T11:05:11;4.05;;;4.05;;
50417;SDS011;36346;48.280;14.292;2023-04-12T11:08:05;3.20;;;3.20;;
50417;SDS011;36346;48.280;14.292;2023-04-12T11:10:44;3.25;;;3.23;;
50417;SDS011;36346;48.280;14.292;2023-04-12T11:13:18;3.27;;;3.26;;
50417;SDS011;36346;48.280;14.292;2023-04-12T11:15:46;3.44;;;3.43;;
50417;SDS011;36346;48.280;14.292;2023-04-12T11:18:21;3.84;;;3.84;;
50417;SDS011;36346;48.280;14.292;2023-04-12T11:20:50;3.56;;;3.56;;
50417;SDS011;36346;48.280;14.292;2023-04-12T11:23:19;3.04;;;3.04;;
50417;SDS011;36346;48.280;14.292;2023-04-12T11:25:49;3.01;;;3.01;;
50417;SDS011;36346;48.280;14.292;2023-04-12T11:28:19;3.31;;;3.31;;
50417;SDS011;36346;48.280;14.292;2023-04-12T11:30:57;3.35;;;3.35;;
50417;SDS011;36346;48.280;14.292;2023-04-12T11:33:35;3.28;;;3.28;;
50417;SDS011;36346;48.280;14.292;2023-04-12T11:38:34;2.87;;;2.87;;
50417;SDS011;36346;48.280;14.292;2023-04-12T11:41:05;2.99;;;2.99;;
50417;SDS011;36346;48.280;14.292;2023-04-12T11:43:35;3.49;;;3.49;;
50417;SDS011;36346;48.280;14.292;2023-04-12T11:46:05;5.33;;;5.33;;
50417;SDS011;36346;48.280;14.292;2023-04-12T11:48:33;12.18;;;12.11;;
50417;SDS011;36346;48.280;14.292;2023-04-12T11:51:17;3.98;;;3.96;;
50417;SDS011;36346;48.280;14.292;2023-04-12T11:53:49;3.58;;;3.58;;
50417;SDS011;36346;48.280;14.292;2023-04-12T11:56:19;4.01;;;4.01;;
50417;SDS011;36346;48.280;14.292;2023-04-12T11:58:47;2.97;;;2.96;;
50417;SDS011;36346;48.280;14.292;2023-04-12T12:01:16;2.66;;;2.66;;
50417;SDS011;36346;48.280;14.292;2023-04-12T12:03:46;2.76;;;2.76;;
50417;SDS011;36346;48.280;14.292;2023-04-12T12:06:15;3.01;;;3.00;;
50417;SDS011;36346;48.280;14.292;2023-04-12T12:08:47;2.57;;;2.57;;
50417;SDS011;36346;48.280;14.292;2023-04-12T12:11:18;3.07;;;3.07;;
50417;SDS011;36346;48.280;14.292;2023-04-12T12:13:52;2.59;;;2.59;;
50417;SDS011;36346;48.280;14.292;2023-04-12T12:16:27;2.96;;;2.96;;
50417;SDS011;36346;48.280;14.292;2023-04-12T12:18:56;3.06;;;3.06;;
50417;SDS011;36346;48.280;14.292;2023-04-12T12:21:24;3.82;;;3.82;;
50417;SDS011;36346;48.280;14.292;2023-04-12T12:23:54;2.89;;;2.89;;
50417;SDS011;36346;48.280;14.292;2023-04-12T12:26:25;3.39;;;3.39;;
50417;SDS011;36346;48.280;14.292;2023-04-12T12:28:55;2.78;;;2.78;;
50417;SDS011;36346;48.280;14.292;2023-04-12T12:31:24;3.15;;;3.15;;
50417;SDS011;36346;48.280;14.292;2023-04-12T12:33:57;2.91;;;2.91;;
50417;SDS011;36346;48.280;14.292;2023-04-12T12:36:29;3.01;;;3.01;;
50417;SDS011;36346;48.280;14.292;2023-04-12T12:39:09;2.89;;;2.88;;
50417;SDS011;36346;48.280;14.292;2023-04-12T12:41:39;3.11;;;3.11;;
50417;SDS011;36346;48.280;14.292;2023-04-12T12:44:08;3.74;;;3.74;;
50417;SDS011;36346;48.280;14.292;2023-04-12T12:46:38;3.19;;;3.19;;
50417;SDS011;36346;48.280;14.292;2023-04-12T12:49:23;3.05;;;3.05;;
50417;SDS011;36346;48.280;14.292;2023-04-12T12:51:51;2.96;;;2.95;;
50417;SDS011;36346;48.280;14.292;2023-04-12T12:54:19;2.86;;;2.86;;
50417;SDS011;36346;48.280;14.292;2023-04-12T12:57:06;2.49;;;2.49;;
50417;SDS011;36346;48.280;14.292;2023-04-12T12:59:34;2.57;;;2.57;;
50417;SDS011;36346;48.280;14.292;2023-04-12T13:02:02;2.59;;;2.59;;
50417;SDS011;36346;48.280;14.292;2023-04-12T13:04:30;8.56;;;8.55;;
50417;SDS011;36346;48.280;14.292;2023-04-12T13:06:58;8.57;;;8.49;;
50417;SDS011;36346;48.280;14.292;2023-04-12T13:09:26;3.80;;;3.76;;
50417;SDS011;36346;48.280;14.292;2023-04-12T13:11:54;2.53;;;2.52;;
50417;SDS011;36346;48.280;14.292;2023-04-12T13:14:23;2.76;;;2.76;;
50417;SDS011;36346;48.280;14.292;2023-04-12T13:16:51;2.75;;;2.74;;
50417;SDS011;36346;48.280;14.292;2023-04-12T13:19:20;3.02;;;3.02;;
50417;SDS011;36346;48.280;14.292;2023-04-12T13:21:48;3.72;;;3.70;;
50417;SDS011;36346;48.280;14.292;2023-04-12T13:24:19;3.00;;;2.88;;
50417;SDS011;36346;48.280;14.292;2023-04-12T13:26:47;4.41;;;4.11;;
50417;SDS011;36346;48.280;14.292;2023-04-12T13:29:15;4.42;;;3.92;;
50417;SDS011;36346;48.280;14.292;2023-04-12T13:31:43;2.36;;;2.16;;
50417;SDS011;36346;48.280;14.292;2023-04-12T13:34:11;2.10;;;2.01;;
50417;SDS011;36346;48.280;14.292;2023-04-12T13:36:39;2.69;;;2.67;;
50417;SDS011;36346;48.280;14.292;2023-04-12T13:39:07;10.02;;;9.99;;
50417;SDS011;36346;48.280;14.292;2023-04-12T13:41:34;5.92;;;5.87;;
50417;SDS011;36346;48.280;14.292;2023-04-12T13:44:04;5.46;;;5.42;;
50417;SDS011;36346;48.280;14.292;2023-04-12T13:46:31;3.71;;;3.69;;
50417;SDS011;36346;48.280;14.292;2023-04-12T13:48:59;3.32;;;3.30;;
50417;SDS011;36346;48.280;14.292;2023-04-12T13:51:28;2.37;;;2.36;;
50417;SDS011;36346;48.280;14.292;2023-04-12T13:53:56;2.05;;;2.05;;
50417;SDS011;36346;48.280;14.292;2023-04-12T13:56:24;2.43;;;2.43;;
50417;SDS011;36346;48.280;14.292;2023-04-12T13:58:52;2.38;;;2.38;;
50417;SDS011;36346;48.280;14.292;2023-04-12T14:01:20;2.46;;;2.46;;
50417;SDS011;36346;48.280;14.292;2023-04-12T14:03:50;2.33;;;2.33;;
50417;SDS011;36346;48.280;14.292;2023-04-12T14:06:20;2.40;;;2.40;;
50417;SDS011;36346;48.280;14.292;2023-04-12T14:08:48;2.13;;;2.13;;
50417;SDS011;36346;48.280;14.292;2023-04-12T14:11:17;1.89;;;1.89;;
50417;SDS011;36346;48.280;14.292;2023-04-12T14:13:45;1.94;;;1.94;;
50417;SDS011;36346;48.280;14.292;2023-04-12T14:16:13;2.29;;;2.28;;
50417;SDS011;36346;48.280;14.292;2023-04-12T14:18:41;2.16;;;2.16;;
50417;SDS011;36346;48.280;14.292;2023-04-12T14:21:09;1.92;;;1.92;;
50417;SDS011;36346;48.280;14.292;2023-04-12T14:23:37;2.79;;;2.79;;
50417;SDS011;36346;48.280;14.292;2023-04-12T14:26:06;2.43;;;2.43;;
50417;SDS011;36346;48.280;14.292;2023-04-12T14:28:34;9.36;;;9.32;;
50417;SDS011;36346;48.280;14.292;2023-04-12T14:31:02;11.00;;;10.89;;
50417;SDS011;36346;48.280;14.292;2023-04-12T14:33:33;4.70;;;4.67;;
50417;SDS011;36346;48.280;14.292;2023-04-12T14:36:01;3.31;;;3.31;;
50417;SDS011;36346;48.280;14.292;2023-04-12T14:38:31;2.10;;;2.09;;
50417;SDS011;36346;48.280;14.292;2023-04-12T14:41:00;2.79;;;2.79;;
50417;SDS011;36346;48.280;14.292;2023-04-12T14:43:28;2.46;;;2.46;;
50417;SDS011;36346;48.280;14.292;2023-04-12T14:45:56;3.88;;;3.86;;
50417;SDS011;36346;48.280;14.292;2023-04-12T14:48:24;3.02;;;2.99;;
50417;SDS011;36346;48.280;14.292;2023-04-12T14:50:52;2.52;;;2.51;;
50417;SDS011;36346;48.280;14.292;2023-04-12T14:53:22;2.65;;;2.65;;
50417;SDS011;36346;48.280;14.292;2023-04-12T14:55:50;2.56;;;2.56;;
50417;SDS011;36346;48.280;14.292;2023-04-12T14:58:18;2.07;;;2.07;;
50417;SDS011;36346;48.280;14.292;2023-04-12T15:00:46;2.01;;;2.01;;
50417;SDS011;36346;48.280;14.292;2023-04-12T15:03:16;1.96;;;1.95;;
50417;SDS011;36346;48.280;14.292;2023-04-12T15:05:44;1.89;;;1.88;;
50417;SDS011;36346;48.280;14.292;2023-04-12T15:08:12;1.92;;;1.92;;
50417;SDS011;36346;48.280;14.292;2023-04-12T15:10:40;2.00;;;2.00;;
50417;SDS011;36346;48.280;14.292;2023-04-12T15:13:08;1.72;;;1.72;;
50417;SDS011;36346;48.280;14.292;2023-04-12T15:15:36;1.74;;;1.74;;